Check out our new PWSWeather beta!
PWSweather.com
Personal Weather Stations
Station Observations
ANTHEMNP
Anthem North Parkside, Anthem, AZ 85086

Anthem North ParksideAnthem, AZ 85086

Lat: 33.876464, Lon: -112.13861199999997

Elevation: 1930

Station Type: Davis Vantage Vue with Pro 2 console

http://www.azjerry.com/ANPW/wxindex.php

High Low Average
Temperature 101.5°F38.6°C 78.1°F25.6°C 91.0°F32.8°C
Dew Point 47.0°F8.3°C 35.0°F1.7°C 39.9°F4.4°C
Winds 3.3 mph 5.3 kmh Calm Calm 1.0 mph ESE1.6 kmh ESE
Wind Gusts 10.0 mph16.1 kmh -- 4.0 mph6.4 kmh
Humidity 30% 11% 18%
Pressure 29.88 in1011.9 mb 29.77 in1008.1 mb -
Precipitation 0.00 in0.0 mm - -
Hour Temp Dew Point Humidity Winds Wind Gusts Pressure Precip Precip Rate Daily Precip Total
12:00 AM 86.1°F30.1°C 44.0°F6.7°C 23% Calm Calm 1.0 mph1.6 kmh 29.77 in1008.1 mb 0.00 in0.0 mm 0.00 in0.0 mm 0.00 in0.0 mm
12:10 AM 85.7°F29.8°C 45.0°F7.2°C 24% Calm Calm 1.0 mph1.6 kmh 29.77 in1008.1 mb 0.00 in0.0 mm 0.00 in0.0 mm 0.00 in0.0 mm
12:20 AM 85.1°F29.5°C 47.0°F8.3°C 26% Calm Calm -- 29.77 in1008.1 mb 0.00 in0.0 mm 0.00 in0.0 mm 0.00 in0.0 mm
12:30 AM 85.6°F29.8°C 45.0°F7.2°C 24% 0.5 mph NNE0.8 kmh NNE 2.0 mph3.2 kmh 29.77 in1008.1 mb 0.00 in0.0 mm 0.00 in0.0 mm 0.00 in0.0 mm
12:40 AM 86.0°F30.0°C 45.0°F7.2°C 24% 0.9 mph N1.4 kmh N 2.0 mph3.2 kmh 29.77 in1008.1 mb 0.00 in0.0 mm 0.00 in0.0 mm 0.00 in0.0 mm
12:50 AM 86.2°F30.1°C 46.0°F7.8°C 25% 0.3 mph N0.5 kmh N 1.0 mph1.6 kmh 29.77 in1008.1 mb 0.00 in0.0 mm 0.00 in0.0 mm 0.00 in0.0 mm
01:00 AM 86.0°F30.0°C 46.0°F7.8°C 25% 0.7 mph N1.1 kmh N 2.0 mph3.2 kmh 29.77 in1008.1 mb 0.00 in0.0 mm 0.00 in0.0 mm 0.00 in0.0 mm
01:10 AM 85.5°F29.7°C 45.0°F7.2°C 24% Calm Calm 1.0 mph1.6 kmh 29.77 in1008.1 mb 0.00 in0.0 mm 0.00 in0.0 mm 0.00 in0.0 mm
01:20 AM 84.5°F29.2°C 45.0°F7.2°C 25% Calm Calm 1.0 mph1.6 kmh 29.77 in1008.1 mb 0.00 in0.0 mm 0.00 in0.0 mm 0.00 in0.0 mm
01:30 AM 84.8°F29.3°C 44.0°F6.7°C 24% 0.4 mph N0.6 kmh N 2.0 mph3.2 kmh 29.78 in1008.5 mb 0.00 in0.0 mm 0.00 in0.0 mm 0.00 in0.0 mm
01:40 AM 84.5°F29.2°C 43.0°F6.1°C 23% 0.7 mph N1.1 kmh N 2.0 mph3.2 kmh 29.77 in1008.1 mb 0.00 in0.0 mm 0.00 in0.0 mm 0.00 in0.0 mm
01:50 AM 84.7°F29.3°C 41.0°F5.0°C 21% 1.1 mph NNE1.8 kmh NNE 2.0 mph3.2 kmh 29.78 in1008.5 mb 0.00 in0.0 mm 0.00 in0.0 mm 0.00 in0.0 mm
02:00 AM 84.4°F29.1°C 40.0°F4.4°C 21% 0.3 mph NNE0.5 kmh NNE 1.0 mph1.6 kmh 29.78 in1008.5 mb 0.00 in0.0 mm 0.00 in0.0 mm 0.00 in0.0 mm
02:10 AM 83.7°F28.7°C 40.0°F4.4°C 21% Calm Calm -- 29.77 in1008.1 mb 0.00 in0.0 mm 0.00 in0.0 mm 0.00 in0.0 mm
02:20 AM 82.8°F28.2°C 40.0°F4.4°C 22% Calm Calm -- 29.78 in1008.5 mb 0.00 in0.0 mm 0.00 in0.0 mm 0.00 in0.0 mm
02:30 AM 82.6°F28.1°C 40.0°F4.4°C 22% Calm Calm 1.0 mph1.6 kmh 29.78 in1008.5 mb 0.00 in0.0 mm 0.00 in0.0 mm 0.00 in0.0 mm
02:40 AM 82.2°F27.9°C 40.0°F4.4°C 22% Calm Calm 1.0 mph1.6 kmh 29.78 in1008.5 mb 0.00 in0.0 mm 0.00 in0.0 mm 0.00 in0.0 mm
02:50 AM 82.5°F28.1°C 40.0°F4.4°C 22% Calm Calm 1.0 mph1.6 kmh 29.78 in1008.5 mb 0.00 in0.0 mm 0.00 in0.0 mm 0.00 in0.0 mm
03:00 AM 82.4°F28.0°C 40.0°F4.4°C 22% 0.7 mph NE1.1 kmh NE 2.0 mph3.2 kmh 29.78 in1008.5 mb 0.00 in0.0 mm 0.00 in0.0 mm 0.00 in0.0 mm
03:10 AM 82.5°F28.1°C 39.0°F3.9°C 21% 0.1 mph NE0.2 kmh NE 1.0 mph1.6 kmh 29.78 in1008.5 mb 0.00 in0.0 mm 0.00 in0.0 mm 0.00 in0.0 mm
03:20 AM 82.4°F28.0°C 39.0°F3.9°C 21% Calm Calm -- 29.78 in1008.5 mb 0.00 in0.0 mm 0.00 in0.0 mm 0.00 in0.0 mm
03:30 AM 80.9°F27.2°C 40.0°F4.4°C 23% Calm Calm -- 29.78 in1008.5 mb 0.00 in0.0 mm 0.00 in0.0 mm 0.00 in0.0 mm
03:40 AM 80.4°F26.9°C 39.0°F3.9°C 23% Calm Calm 1.0 mph1.6 kmh 29.78 in1008.5 mb 0.00 in0.0 mm 0.00 in0.0 mm 0.00 in0.0 mm
03:50 AM 80.1°F26.7°C 40.0°F4.4°C 24% Calm Calm 1.0 mph1.6 kmh 29.78 in1008.5 mb 0.00 in0.0 mm 0.00 in0.0 mm 0.00 in0.0 mm
04:00 AM 80.0°F26.7°C 39.0°F3.9°C 23% Calm Calm 1.0 mph1.6 kmh 29.78 in1008.5 mb 0.00 in0.0 mm 0.00 in0.0 mm 0.00 in0.0 mm
04:10 AM 79.9°F26.6°C 39.0°F3.9°C 23% Calm Calm 1.0 mph1.6 kmh 29.78 in1008.5 mb 0.00 in0.0 mm 0.00 in0.0 mm 0.00 in0.0 mm
04:20 AM 79.3°F26.3°C 38.0°F3.3°C 23% 0.4 mph N0.6 kmh N 2.0 mph3.2 kmh 29.78 in1008.5 mb 0.00 in0.0 mm 0.00 in0.0 mm 0.00 in0.0 mm
04:30 AM 79.4°F26.3°C 38.0°F3.3°C 23% 0.3 mph NE0.5 kmh NE 2.0 mph3.2 kmh 29.78 in1008.5 mb 0.00 in0.0 mm 0.00 in0.0 mm 0.00 in0.0 mm
04:40 AM 79.9°F26.6°C 39.0°F3.9°C 23% 0.9 mph NNE1.4 kmh NNE 3.0 mph4.8 kmh 29.78 in1008.5 mb 0.00 in0.0 mm 0.00 in0.0 mm 0.00 in0.0 mm
04:50 AM 79.1°F26.2°C 39.0°F3.9°C 24% 0.3 mph NNE0.5 kmh NNE 2.0 mph3.2 kmh 29.78 in1008.5 mb 0.00 in0.0 mm 0.00 in0.0 mm 0.00 in0.0 mm
05:00 AM 79.0°F26.1°C 39.0°F3.9°C 24% 0.5 mph N0.8 kmh N 2.0 mph3.2 kmh 29.79 in1008.8 mb 0.00 in0.0 mm 0.00 in0.0 mm 0.00 in0.0 mm
05:10 AM 79.2°F26.2°C 40.0°F4.4°C 25% 0.3 mph N0.5 kmh N 1.0 mph1.6 kmh 29.79 in1008.8 mb 0.00 in0.0 mm 0.00 in0.0 mm 0.00 in0.0 mm
05:20 AM 79.1°F26.2°C 40.0°F4.4°C 25% 0.7 mph NNE1.1 kmh NNE 2.0 mph3.2 kmh 29.79 in1008.8 mb 0.00 in0.0 mm 0.00 in0.0 mm 0.00 in0.0 mm
05:30 AM 78.5°F25.8°C 43.0°F6.1°C 28% Calm Calm 1.0 mph1.6 kmh 29.80 in1009.1 mb 0.00 in0.0 mm 0.00 in0.0 mm 0.00 in0.0 mm
05:40 AM 78.6°F25.9°C 44.0°F6.7°C 29% 1.1 mph NNE1.8 kmh NNE 3.0 mph4.8 kmh 29.80 in1009.1 mb 0.00 in0.0 mm 0.00 in0.0 mm 0.00 in0.0 mm
05:50 AM 78.1°F25.6°C 44.0°F6.7°C 30% 0.5 mph N0.8 kmh N 2.0 mph3.2 kmh 29.80 in1009.1 mb 0.00 in0.0 mm 0.00 in0.0 mm 0.00 in0.0 mm
06:00 AM 78.6°F25.9°C 43.0°F6.1°C 28% 1.6 mph N2.6 kmh N 3.0 mph4.8 kmh 29.81 in1009.5 mb 0.00 in0.0 mm 0.00 in0.0 mm 0.00 in0.0 mm
06:10 AM 78.4°F25.8°C 42.0°F5.6°C 27% Calm Calm 1.0 mph1.6 kmh 29.81 in1009.5 mb 0.00 in0.0 mm 0.00 in0.0 mm 0.00 in0.0 mm
06:20 AM 78.1°F25.6°C 42.0°F5.6°C 28% 1.5 mph NNE2.4 kmh NNE 4.0 mph6.4 kmh 29.82 in1009.8 mb 0.00 in0.0 mm 0.00 in0.0 mm 0.00 in0.0 mm
06:30 AM 78.4°F25.8°C 43.0°F6.1°C 28% 2.4 mph NNE3.9 kmh NNE 4.0 mph6.4 kmh 29.82 in1009.8 mb 0.00 in0.0 mm 0.00 in0.0 mm 0.00 in0.0 mm
06:40 AM 78.9°F26.1°C 42.0°F5.6°C 27% 1.9 mph N3.1 kmh N 4.0 mph6.4 kmh 29.82 in1009.8 mb 0.00 in0.0 mm 0.00 in0.0 mm 0.00 in0.0 mm
06:50 AM 79.4°F26.3°C 44.0°F6.7°C 29% 1.5 mph NNE2.4 kmh NNE 3.0 mph4.8 kmh 29.83 in1010.2 mb 0.00 in0.0 mm 0.00 in0.0 mm 0.00 in0.0 mm
07:00 AM 79.9°F26.6°C 45.0°F7.2°C 29% 1.2 mph NNE1.9 kmh NNE 3.0 mph4.8 kmh 29.84 in1010.5 mb 0.00 in0.0 mm 0.00 in0.0 mm 0.00 in0.0 mm
07:10 AM 80.9°F27.2°C 45.0°F7.2°C 28% 1.1 mph NNE1.8 kmh NNE 3.0 mph4.8 kmh 29.84 in1010.5 mb 0.00 in0.0 mm 0.00 in0.0 mm 0.00 in0.0 mm
07:20 AM 82.0°F27.8°C 46.0°F7.8°C 28% 0.8 mph N1.3 kmh N 2.0 mph3.2 kmh 29.84 in1010.5 mb 0.00 in0.0 mm 0.00 in0.0 mm 0.00 in0.0 mm
07:30 AM 82.7°F28.2°C 45.0°F7.2°C 27% 0.4 mph NNE0.6 kmh NNE 3.0 mph4.8 kmh 29.84 in1010.5 mb 0.00 in0.0 mm 0.00 in0.0 mm 0.00 in0.0 mm
07:40 AM 84.8°F29.3°C 45.0°F7.2°C 25% 1.3 mph N2.1 kmh N 3.0 mph4.8 kmh 29.84 in1010.5 mb 0.00 in0.0 mm 0.00 in0.0 mm 0.00 in0.0 mm
07:50 AM 86.2°F30.1°C 45.0°F7.2°C 24% 2.2 mph NNE3.5 kmh NNE 4.0 mph6.4 kmh 29.84 in1010.5 mb 0.00 in0.0 mm 0.00 in0.0 mm 0.00 in0.0 mm
08:00 AM 87.4°F30.8°C 44.0°F6.7°C 22% 1.1 mph N1.8 kmh N 3.0 mph4.8 kmh 29.84 in1010.5 mb 0.00 in0.0 mm 0.00 in0.0 mm 0.00 in0.0 mm
08:10 AM 88.5°F31.4°C 44.0°F6.7°C 21% 1.3 mph NNE2.1 kmh NNE 3.0 mph4.8 kmh 29.85 in1010.8 mb 0.00 in0.0 mm 0.00 in0.0 mm 0.00 in0.0 mm
08:20 AM 91.4°F33.0°C 42.0°F5.6°C 18% 0.3 mph NNE0.5 kmh NNE 2.0 mph3.2 kmh 29.85 in1010.8 mb 0.00 in0.0 mm 0.00 in0.0 mm 0.00 in0.0 mm
08:30 AM 92.8°F33.8°C 43.0°F6.1°C 18% 0.3 mph N0.5 kmh N 2.0 mph3.2 kmh 29.85 in1010.8 mb 0.00 in0.0 mm 0.00 in0.0 mm 0.00 in0.0 mm
08:40 AM 95.2°F35.1°C 41.0°F5.0°C 15% 0.2 mph SE0.3 kmh SE 2.0 mph3.2 kmh 29.86 in1011.2 mb 0.00 in0.0 mm 0.00 in0.0 mm 0.00 in0.0 mm
08:50 AM 95.5°F35.3°C 43.0°F6.1°C 16% 0.4 mph SE0.6 kmh SE 2.0 mph3.2 kmh 29.86 in1011.2 mb 0.00 in0.0 mm 0.00 in0.0 mm 0.00 in0.0 mm
09:00 AM 94.4°F34.7°C 43.0°F6.1°C 17% 1.2 mph SE1.9 kmh SE 3.0 mph4.8 kmh 29.86 in1011.2 mb 0.00 in0.0 mm 0.00 in0.0 mm 0.00 in0.0 mm
09:10 AM 95.2°F35.1°C 41.0°F5.0°C 15% 0.9 mph SSE1.4 kmh SSE 5.0 mph8.0 kmh 29.87 in1011.5 mb 0.00 in0.0 mm 0.00 in0.0 mm 0.00 in0.0 mm
09:20 AM 95.2°F35.1°C 41.0°F5.0°C 15% 1.1 mph SE1.8 kmh SE 4.0 mph6.4 kmh 29.87 in1011.5 mb 0.00 in0.0 mm 0.00 in0.0 mm 0.00 in0.0 mm
09:30 AM 95.1°F35.1°C 39.0°F3.9°C 14% 1.5 mph S2.4 kmh S 5.0 mph8.0 kmh 29.87 in1011.5 mb 0.00 in0.0 mm 0.00 in0.0 mm 0.00 in0.0 mm
09:40 AM 95.3°F35.2°C 42.0°F5.6°C 16% 1.2 mph SE1.9 kmh SE 5.0 mph8.0 kmh 29.87 in1011.5 mb 0.00 in0.0 mm 0.00 in0.0 mm 0.00 in0.0 mm
09:50 AM 96.3°F35.7°C 43.0°F6.1°C 16% 1.2 mph S1.9 kmh S 4.0 mph6.4 kmh 29.87 in1011.5 mb 0.00 in0.0 mm 0.00 in0.0 mm 0.00 in0.0 mm
10:00 AM 95.8°F35.4°C 44.0°F6.7°C 17% 1.8 mph SW2.9 kmh SW 5.0 mph8.0 kmh 29.87 in1011.5 mb 0.00 in0.0 mm 0.00 in0.0 mm 0.00 in0.0 mm
10:10 AM 96.8°F36.0°C 44.0°F6.7°C 16% 2.2 mph SSW3.5 kmh SSW 6.0 mph9.7 kmh 29.88 in1011.9 mb 0.00 in0.0 mm 0.00 in0.0 mm 0.00 in0.0 mm
10:20 AM 96.9°F36.1°C 38.0°F3.3°C 13% 2.5 mph SW4.0 kmh SW 7.0 mph11.3 kmh 29.88 in1011.9 mb 0.00 in0.0 mm 0.00 in0.0 mm 0.00 in0.0 mm
10:30 AM 97.3°F36.3°C 39.0°F3.9°C 13% 2.7 mph SSE4.3 kmh SSE 6.0 mph9.7 kmh 29.88 in1011.9 mb 0.00 in0.0 mm 0.00 in0.0 mm 0.00 in0.0 mm
10:40 AM 97.9°F36.6°C 39.0°F3.9°C 13% 2.7 mph SE4.3 kmh SE 7.0 mph11.3 kmh 29.88 in1011.9 mb 0.00 in0.0 mm 0.00 in0.0 mm 0.00 in0.0 mm
10:50 AM 97.4°F36.3°C 39.0°F3.9°C 13% 2.5 mph S4.0 kmh S 10.0 mph16.1 kmh 29.88 in1011.9 mb 0.00 in0.0 mm 0.00 in0.0 mm 0.00 in0.0 mm
11:00 AM 97.2°F36.2°C 41.0°F5.0°C 14% 2.8 mph SE4.5 kmh SE 8.0 mph12.9 kmh 29.88 in1011.9 mb 0.00 in0.0 mm 0.00 in0.0 mm 0.00 in0.0 mm
11:10 AM 97.8°F36.6°C 39.0°F3.9°C 13% 2.7 mph SW4.3 kmh SW 8.0 mph12.9 kmh 29.88 in1011.9 mb 0.00 in0.0 mm 0.00 in0.0 mm 0.00 in0.0 mm
11:20 AM 97.5°F36.4°C 41.0°F5.0°C 14% 3.2 mph SW5.1 kmh SW 7.0 mph11.3 kmh 29.87 in1011.5 mb 0.00 in0.0 mm 0.00 in0.0 mm 0.00 in0.0 mm
11:30 AM 98.2°F36.8°C 40.0°F4.4°C 13% 2.3 mph SW3.7 kmh SW 9.0 mph14.5 kmh 29.87 in1011.5 mb 0.00 in0.0 mm 0.00 in0.0 mm 0.00 in0.0 mm
11:40 AM 98.9°F37.2°C 40.0°F4.4°C 13% 2.9 mph S4.7 kmh S 7.0 mph11.3 kmh 29.87 in1011.5 mb 0.00 in0.0 mm 0.00 in0.0 mm 0.00 in0.0 mm
11:50 AM 100.2°F37.9°C 39.0°F3.9°C 12% 2.7 mph SSE4.3 kmh SSE 7.0 mph11.3 kmh 29.87 in1011.5 mb 0.00 in0.0 mm 0.00 in0.0 mm 0.00 in0.0 mm
12:00 PM 99.6°F37.6°C 39.0°F3.9°C 12% 2.6 mph ESE4.2 kmh ESE 9.0 mph14.5 kmh 29.87 in1011.5 mb 0.00 in0.0 mm 0.00 in0.0 mm 0.00 in0.0 mm
12:10 PM 99.6°F37.6°C 41.0°F5.0°C 13% 3.0 mph WSW4.8 kmh WSW 6.0 mph9.7 kmh 29.86 in1011.2 mb 0.00 in0.0 mm 0.00 in0.0 mm 0.00 in0.0 mm
12:20 PM 100.3°F37.9°C 41.0°F5.0°C 13% 1.5 mph SW2.4 kmh SW 7.0 mph11.3 kmh 29.86 in1011.2 mb 0.00 in0.0 mm 0.00 in0.0 mm 0.00 in0.0 mm
12:30 PM 100.5°F38.1°C 41.0°F5.0°C 13% 3.3 mph SE5.3 kmh SE 10.0 mph16.1 kmh 29.86 in1011.2 mb 0.00 in0.0 mm 0.00 in0.0 mm 0.00 in0.0 mm
12:40 PM 100.3°F37.9°C 41.0°F5.0°C 13% 2.7 mph S4.3 kmh S 7.0 mph11.3 kmh 29.86 in1011.2 mb 0.00 in0.0 mm 0.00 in0.0 mm 0.00 in0.0 mm
12:50 PM 100.9°F38.3°C 42.0°F5.6°C 13% 2.7 mph SSE4.3 kmh SSE 8.0 mph12.9 kmh 29.86 in1011.2 mb 0.00 in0.0 mm 0.00 in0.0 mm 0.00 in0.0 mm
01:00 PM 100.3°F37.9°C 39.0°F3.9°C 12% 2.9 mph SW4.7 kmh SW 7.0 mph11.3 kmh 29.86 in1011.2 mb 0.00 in0.0 mm 0.00 in0.0 mm 0.00 in0.0 mm
01:10 PM 99.3°F37.4°C 38.0°F3.3°C 12% 2.4 mph SSW3.9 kmh SSW 5.0 mph8.0 kmh 29.85 in1010.8 mb 0.00 in0.0 mm 0.00 in0.0 mm 0.00 in0.0 mm
01:20 PM 100.0°F37.8°C 39.0°F3.9°C 12% 2.8 mph SSW4.5 kmh SSW 7.0 mph11.3 kmh 29.85 in1010.8 mb 0.00 in0.0 mm 0.00 in0.0 mm 0.00 in0.0 mm
01:30 PM 100.5°F38.1°C 39.0°F3.9°C 12% 2.3 mph SW3.7 kmh SW 9.0 mph14.5 kmh 29.84 in1010.5 mb 0.00 in0.0 mm 0.00 in0.0 mm 0.00 in0.0 mm
01:40 PM 100.7°F38.2°C 39.0°F3.9°C 12% 2.2 mph ESE3.5 kmh ESE 6.0 mph9.7 kmh 29.84 in1010.5 mb 0.00 in0.0 mm 0.00 in0.0 mm 0.00 in0.0 mm
01:50 PM 101.1°F38.4°C 40.0°F4.4°C 12% 2.3 mph SSW3.7 kmh SSW 5.0 mph8.0 kmh 29.84 in1010.5 mb 0.00 in0.0 mm 0.00 in0.0 mm 0.00 in0.0 mm
02:00 PM 101.5°F38.6°C 40.0°F4.4°C 12% 3.1 mph SSE5.0 kmh SSE 6.0 mph9.7 kmh 29.83 in1010.2 mb 0.00 in0.0 mm 0.00 in0.0 mm 0.00 in0.0 mm
02:10 PM 101.4°F38.6°C 38.0°F3.3°C 11% 1.2 mph NE1.9 kmh NE 7.0 mph11.3 kmh 29.82 in1009.8 mb 0.00 in0.0 mm 0.00 in0.0 mm 0.00 in0.0 mm
02:20 PM 100.4°F38.0°C 39.0°F3.9°C 12% 2.0 mph S3.2 kmh S 9.0 mph14.5 kmh 29.82 in1009.8 mb 0.00 in0.0 mm 0.00 in0.0 mm 0.00 in0.0 mm
02:30 PM 100.3°F37.9°C 41.0°F5.0°C 13% 1.5 mph S2.4 kmh S 4.0 mph6.4 kmh 29.82 in1009.8 mb 0.00 in0.0 mm 0.00 in0.0 mm 0.00 in0.0 mm
02:40 PM 100.4°F38.0°C 39.0°F3.9°C 12% 2.8 mph SSW4.5 kmh SSW 9.0 mph14.5 kmh 29.82 in1009.8 mb 0.00 in0.0 mm 0.00 in0.0 mm 0.00 in0.0 mm
02:50 PM 99.8°F37.7°C 39.0°F3.9°C 12% 3.1 mph S5.0 kmh S 6.0 mph9.7 kmh 29.81 in1009.5 mb 0.00 in0.0 mm 0.00 in0.0 mm 0.00 in0.0 mm
03:00 PM 99.5°F37.5°C 41.0°F5.0°C 13% 2.5 mph SSW4.0 kmh SSW 7.0 mph11.3 kmh 29.81 in1009.5 mb 0.00 in0.0 mm 0.00 in0.0 mm 0.00 in0.0 mm
03:10 PM 99.6°F37.6°C 39.0°F3.9°C 12% 2.2 mph S3.5 kmh S 6.0 mph9.7 kmh 29.80 in1009.1 mb 0.00 in0.0 mm 0.00 in0.0 mm 0.00 in0.0 mm
03:20 PM 99.5°F37.5°C 38.0°F3.3°C 12% 2.8 mph SW4.5 kmh SW 6.0 mph9.7 kmh 29.80 in1009.1 mb 0.00 in0.0 mm 0.00 in0.0 mm 0.00 in0.0 mm
03:30 PM 100.2°F37.9°C 37.0°F2.8°C 11% 2.3 mph SE3.7 kmh SE 6.0 mph9.7 kmh 29.80 in1009.1 mb 0.00 in0.0 mm 0.00 in0.0 mm 0.00 in0.0 mm
03:40 PM 100.4°F38.0°C 39.0°F3.9°C 12% 2.8 mph SW4.5 kmh SW 7.0 mph11.3 kmh 29.79 in1008.8 mb 0.00 in0.0 mm 0.00 in0.0 mm 0.00 in0.0 mm
03:50 PM 100.2°F37.9°C 39.0°F3.9°C 12% 2.7 mph S4.3 kmh S 8.0 mph12.9 kmh 29.79 in1008.8 mb 0.00 in0.0 mm 0.00 in0.0 mm 0.00 in0.0 mm
04:00 PM 100.6°F38.1°C 39.0°F3.9°C 12% 2.0 mph SW3.2 kmh SW 5.0 mph8.0 kmh 29.79 in1008.8 mb 0.00 in0.0 mm 0.00 in0.0 mm 0.00 in0.0 mm
04:10 PM 100.3°F37.9°C 39.0°F3.9°C 12% 1.9 mph S3.1 kmh S 6.0 mph9.7 kmh 29.79 in1008.8 mb 0.00 in0.0 mm 0.00 in0.0 mm 0.00 in0.0 mm
04:20 PM 100.4°F38.0°C 39.0°F3.9°C 12% 2.0 mph SSE3.2 kmh SSE 5.0 mph8.0 kmh 29.79 in1008.8 mb 0.00 in0.0 mm 0.00 in0.0 mm 0.00 in0.0 mm
04:30 PM 99.7°F37.6°C 39.0°F3.9°C 12% 2.0 mph SW3.2 kmh SW 6.0 mph9.7 kmh 29.78 in1008.5 mb 0.00 in0.0 mm 0.00 in0.0 mm 0.00 in0.0 mm
04:40 PM 99.8°F37.7°C 36.0°F2.2°C 11% 1.3 mph SW2.1 kmh SW 4.0 mph6.4 kmh 29.79 in1008.8 mb 0.00 in0.0 mm 0.00 in0.0 mm 0.00 in0.0 mm
04:50 PM 99.7°F37.6°C 36.0°F2.2°C 11% 1.3 mph SSW2.1 kmh SSW 5.0 mph8.0 kmh 29.79 in1008.8 mb 0.00 in0.0 mm 0.00 in0.0 mm 0.00 in0.0 mm
05:00 PM 99.5°F37.5°C 36.0°F2.2°C 11% 1.4 mph SE2.3 kmh SE 5.0 mph8.0 kmh 29.79 in1008.8 mb 0.00 in0.0 mm 0.00 in0.0 mm 0.00 in0.0 mm
05:10 PM 99.2°F37.3°C 36.0°F2.2°C 11% 2.0 mph SW3.2 kmh SW 7.0 mph11.3 kmh 29.79 in1008.8 mb 0.00 in0.0 mm 0.00 in0.0 mm 0.00 in0.0 mm
05:20 PM 98.7°F37.1°C 36.0°F2.2°C 11% 1.7 mph S2.7 kmh S 4.0 mph6.4 kmh 29.78 in1008.5 mb 0.00 in0.0 mm 0.00 in0.0 mm 0.00 in0.0 mm
05:30 PM 98.5°F36.9°C 38.0°F3.3°C 12% 1.7 mph ESE2.7 kmh ESE 5.0 mph8.0 kmh 29.79 in1008.8 mb 0.00 in0.0 mm 0.00 in0.0 mm 0.00 in0.0 mm
05:40 PM 98.5°F36.9°C 35.0°F1.7°C 11% 2.0 mph SSE3.2 kmh SSE 6.0 mph9.7 kmh 29.79 in1008.8 mb 0.00 in0.0 mm 0.00 in0.0 mm 0.00 in0.0 mm
05:50 PM 99.0°F37.2°C 36.0°F2.2°C 11% 2.4 mph SE3.9 kmh SE 6.0 mph9.7 kmh 29.78 in1008.5 mb 0.00 in0.0 mm 0.00 in0.0 mm 0.00 in0.0 mm
06:00 PM 99.1°F37.3°C 36.0°F2.2°C 11% 1.7 mph SSE2.7 kmh SSE 5.0 mph8.0 kmh 29.78 in1008.5 mb 0.00 in0.0 mm 0.00 in0.0 mm 0.00 in0.0 mm
06:10 PM 99.1°F37.3°C 36.0°F2.2°C 11% 1.9 mph N3.1 kmh N 4.0 mph6.4 kmh 29.78 in1008.5 mb 0.00 in0.0 mm 0.00 in0.0 mm 0.00 in0.0 mm
06:20 PM 99.1°F37.3°C 36.0°F2.2°C 11% 1.1 mph SE1.8 kmh SE 5.0 mph8.0 kmh 29.78 in1008.5 mb 0.00 in0.0 mm 0.00 in0.0 mm 0.00 in0.0 mm
06:30 PM 98.9°F37.2°C 36.0°F2.2°C 11% 1.2 mph SW1.9 kmh SW 6.0 mph9.7 kmh 29.78 in1008.5 mb 0.00 in0.0 mm 0.00 in0.0 mm 0.00 in0.0 mm
06:40 PM 98.2°F36.8°C 35.0°F1.7°C 11% 2.0 mph SW3.2 kmh SW 5.0 mph8.0 kmh 29.78 in1008.5 mb 0.00 in0.0 mm 0.00 in0.0 mm 0.00 in0.0 mm
06:50 PM 97.7°F36.5°C 37.0°F2.8°C 12% 0.8 mph ESE1.3 kmh ESE 3.0 mph4.8 kmh 29.78 in1008.5 mb 0.00 in0.0 mm 0.00 in0.0 mm 0.00 in0.0 mm
07:00 PM 97.3°F36.3°C 37.0°F2.8°C 12% 0.9 mph SSE1.4 kmh SSE 4.0 mph6.4 kmh 29.78 in1008.5 mb 0.00 in0.0 mm 0.00 in0.0 mm 0.00 in0.0 mm
07:10 PM 96.6°F35.9°C 36.0°F2.2°C 12% 0.3 mph SE0.5 kmh SE 2.0 mph3.2 kmh 29.78 in1008.5 mb 0.00 in0.0 mm 0.00 in0.0 mm 0.00 in0.0 mm
07:20 PM 95.9°F35.5°C 38.0°F3.3°C 13% 0.9 mph SE1.4 kmh SE 2.0 mph3.2 kmh 29.78 in1008.5 mb 0.00 in0.0 mm 0.00 in0.0 mm 0.00 in0.0 mm
07:30 PM 94.9°F34.9°C 39.0°F3.9°C 14% 0.6 mph SE1.0 kmh SE 2.0 mph3.2 kmh 29.78 in1008.5 mb 0.00 in0.0 mm 0.00 in0.0 mm 0.00 in0.0 mm
07:40 PM 94.2°F34.6°C 38.0°F3.3°C 14% 0.4 mph SE0.6 kmh SE 2.0 mph3.2 kmh 29.78 in1008.5 mb 0.00 in0.0 mm 0.00 in0.0 mm 0.00 in0.0 mm
07:50 PM 93.3°F34.1°C 37.0°F2.8°C 14% Calm Calm 1.0 mph1.6 kmh 29.79 in1008.8 mb 0.00 in0.0 mm 0.00 in0.0 mm 0.00 in0.0 mm
08:00 PM 91.9°F33.3°C 38.0°F3.3°C 15% Calm Calm 1.0 mph1.6 kmh 29.79 in1008.8 mb 0.00 in0.0 mm 0.00 in0.0 mm 0.00 in0.0 mm
08:10 PM 91.1°F32.8°C 37.0°F2.8°C 15% Calm Calm 1.0 mph1.6 kmh 29.79 in1008.8 mb 0.00 in0.0 mm 0.00 in0.0 mm 0.00 in0.0 mm
08:20 PM 90.6°F32.6°C 37.0°F2.8°C 15% Calm Calm 1.0 mph1.6 kmh 29.79 in1008.8 mb 0.00 in0.0 mm 0.00 in0.0 mm 0.00 in0.0 mm
08:30 PM 90.0°F32.2°C 36.0°F2.2°C 15% Calm Calm 1.0 mph1.6 kmh 29.80 in1009.1 mb 0.00 in0.0 mm 0.00 in0.0 mm 0.00 in0.0 mm
08:40 PM 89.9°F32.2°C 36.0°F2.2°C 15% Calm Calm 1.0 mph1.6 kmh 29.80 in1009.1 mb 0.00 in0.0 mm 0.00 in0.0 mm 0.00 in0.0 mm
08:50 PM 89.6°F32.0°C 36.0°F2.2°C 15% Calm Calm 1.0 mph1.6 kmh 29.80 in1009.1 mb 0.00 in0.0 mm 0.00 in0.0 mm 0.00 in0.0 mm
09:00 PM 89.4°F31.9°C 38.0°F3.3°C 16% Calm Calm 1.0 mph1.6 kmh 29.81 in1009.5 mb 0.00 in0.0 mm 0.00 in0.0 mm 0.00 in0.0 mm
09:10 PM 89.2°F31.8°C 39.0°F3.9°C 17% Calm Calm 1.0 mph1.6 kmh 29.81 in1009.5 mb 0.00 in0.0 mm 0.00 in0.0 mm 0.00 in0.0 mm
09:20 PM 89.0°F31.7°C 39.0°F3.9°C 17% Calm Calm 1.0 mph1.6 kmh 29.81 in1009.5 mb 0.00 in0.0 mm 0.00 in0.0 mm 0.00 in0.0 mm
09:30 PM 89.0°F31.7°C 39.0°F3.9°C 17% Calm Calm 1.0 mph1.6 kmh 29.81 in1009.5 mb 0.00 in0.0 mm 0.00 in0.0 mm 0.00 in0.0 mm
09:40 PM 88.8°F31.6°C 39.0°F3.9°C 17% 1.8 mph NE2.9 kmh NE 4.0 mph6.4 kmh 29.81 in1009.5 mb 0.00 in0.0 mm 0.00 in0.0 mm 0.00 in0.0 mm
09:50 PM 88.9°F31.6°C 37.0°F2.8°C 16% 3.1 mph NNW5.0 kmh NNW 5.0 mph8.0 kmh 29.80 in1009.1 mb 0.00 in0.0 mm 0.00 in0.0 mm 0.00 in0.0 mm
10:00 PM 88.6°F31.4°C 37.0°F2.8°C 16% 2.1 mph NNE3.4 kmh NNE 3.0 mph4.8 kmh 29.80 in1009.1 mb 0.00 in0.0 mm 0.00 in0.0 mm 0.00 in0.0 mm
10:10 PM 88.5°F31.4°C 38.0°F3.3°C 17% 0.6 mph NNE1.0 kmh NNE 2.0 mph3.2 kmh 29.80 in1009.1 mb 0.00 in0.0 mm 0.00 in0.0 mm 0.00 in0.0 mm
10:20 PM 88.0°F31.1°C 38.0°F3.3°C 17% 0.1 mph N0.2 kmh N 2.0 mph3.2 kmh 29.80 in1009.1 mb 0.00 in0.0 mm 0.00 in0.0 mm 0.00 in0.0 mm
10:30 PM 87.8°F31.0°C 38.0°F3.3°C 17% 0.5 mph N0.8 kmh N 2.0 mph3.2 kmh 29.80 in1009.1 mb 0.00 in0.0 mm 0.00 in0.0 mm 0.00 in0.0 mm
10:40 PM 87.0°F30.6°C 39.0°F3.9°C 18% Calm Calm 1.0 mph1.6 kmh 29.80 in1009.1 mb 0.00 in0.0 mm 0.00 in0.0 mm 0.00 in0.0 mm
10:50 PM 85.7°F29.8°C 38.0°F3.3°C 18% Calm Calm -- 29.81 in1009.5 mb 0.00 in0.0 mm 0.00 in0.0 mm 0.00 in0.0 mm
11:00 PM 84.8°F29.3°C 37.0°F2.8°C 18% 0.1 mph N0.2 kmh N 1.0 mph1.6 kmh 29.81 in1009.5 mb 0.00 in0.0 mm 0.00 in0.0 mm 0.00 in0.0 mm
11:10 PM 84.8°F29.3°C 38.0°F3.3°C 19% Calm Calm 1.0 mph1.6 kmh 29.81 in1009.5 mb 0.00 in0.0 mm 0.00 in0.0 mm 0.00 in0.0 mm
11:20 PM 85.0°F29.4°C 37.0°F2.8°C 18% 1.8 mph NE2.9 kmh NE 4.0 mph6.4 kmh 29.81 in1009.5 mb 0.00 in0.0 mm 0.00 in0.0 mm 0.00 in0.0 mm
11:30 PM 86.0°F30.0°C 36.0°F2.2°C 17% 1.9 mph NE3.1 kmh NE 4.0 mph6.4 kmh 29.81 in1009.5 mb 0.00 in0.0 mm 0.00 in0.0 mm 0.00 in0.0 mm
11:40 PM 85.9°F29.9°C 36.0°F2.2°C 17% 1.2 mph NNE1.9 kmh NNE 3.0 mph4.8 kmh 29.81 in1009.5 mb 0.00 in0.0 mm 0.00 in0.0 mm 0.00 in0.0 mm
11:50 PM 85.2°F29.6°C 37.0°F2.8°C 18% 0.9 mph NNE1.4 kmh NNE 2.0 mph3.2 kmh 29.81 in1009.5 mb 0.00 in0.0 mm 0.00 in0.0 mm 0.00 in0.0 mm